Time;durP1;ratioP1;P1;durP2;ratioP2;P2;SDS_P1;SDS_P2;PMS_P1;PMS_P2;Temp;Humidity;BMP_temperature;BMP_pressure;BME280_temperature;BME280_humidity;BME280_pressure;Samples;Min_cycle;Max_cycle;Signal;HPM_P1;HPM_P2
2023/09/30 00:00:57;;;;;;;0.00;0.00;;;18.20;99.90;;;;;;5024095;28;20037;-79
2023/09/30 00:03:23;;;;;;;0.10;0.10;;;18.20;99.90;;;;;;5024516;28;20030;-79
2023/09/30 00:05:49;;;;;;;0.00;0.00;;;18.20;99.90;;;;;;5021878;28;20041;-79
2023/09/30 00:08:15;;;;;;;0.00;0.00;;;18.20;99.90;;;;;;5019231;28;20045;-78
2023/09/30 00:10:40;;;;;;;1.00;1.00;;;18.10;99.90;;;;;;5017194;28;20044;-78
2023/09/30 00:13:09;;;;;;;0.00;0.00;;;18.10;99.90;;;;;;5022614;28;20034;-78
2023/09/30 00:15:35;;;;;;;0.00;0.00;;;18.10;99.90;;;;;;5024418;28;20061;-78
2023/09/30 00:18:01;;;;;;;0.00;0.00;;;18.00;99.90;;;;;;5019433;28;20169;-79
2023/09/30 00:20:27;;;;;;;0.00;0.00;;;18.00;99.90;;;;;;5023670;28;20014;-79
2023/09/30 00:22:53;;;;;;;0.10;0.10;;;18.00;99.90;;;;;;5020019;28;20037;-80
2023/09/30 00:25:20;;;;;;;0.00;0.00;;;18.10;99.90;;;;;;5021697;28;20094;-77
2023/09/30 00:27:47;;;;;;;0.25;0.25;;;18.20;99.90;;;;;;5025413;28;20025;-78
2023/09/30 00:30:13;;;;;;;0.40;0.40;;;18.10;99.90;;;;;;5026510;28;20021;-78
2023/09/30 00:32:39;;;;;;;0.00;0.00;;;18.10;99.90;;;;;;5025656;28;20033;-82
2023/09/30 00:35:11;;;;;;;0.00;0.00;;;18.10;99.90;;;;;;5023890;28;20029;-80
2023/09/30 00:37:41;;;;;;;0.00;0.00;;;18.00;99.90;;;;;;5028047;28;20068;-79
2023/09/30 00:40:08;;;;;;;0.00;0.00;;;18.10;99.90;;;;;;5020575;28;20029;-79
2023/09/30 00:42:33;;;;;;;0.00;0.00;;;18.00;99.90;;;;;;5017116;28;20017;-81
2023/09/30 00:44:59;;;;;;;0.00;0.00;;;18.00;99.90;;;;;;5025936;28;20370;-80
2023/09/30 00:47:26;;;;;;;0.03;0.03;;;18.00;99.90;;;;;;5024710;28;20683;-80
2023/09/30 00:49:53;;;;;;;;;;;17.90;99.90;;;;;;5024866;28;20105;-80
2023/09/30 00:52:19;;;;;;;0.10;0.10;;;17.80;99.90;;;;;;5024145;28;20004;-80
2023/09/30 00:54:47;;;;;;;0.00;0.00;;;17.80;99.90;;;;;;5021562;28;20033;-80
2023/09/30 00:57:13;;;;;;;0.00;0.00;;;17.80;99.90;;;;;;5017860;28;20035;-79
2023/09/30 00:59:40;;;;;;;0.00;0.00;;;17.70;99.90;;;;;;5023723;28;20557;-81
2023/09/30 01:02:07;;;;;;;0.00;0.00;;;17.70;99.90;;;;;;5024389;28;20037;-79
2023/09/30 01:04:33;;;;;;;0.00;0.00;;;17.50;99.90;;;;;;5022917;28;20108;-81
2023/09/30 01:06:59;;;;;;;0.35;0.35;;;17.50;99.90;;;;;;5024398;28;20029;-80
2023/09/30 01:09:25;;;;;;;0.00;0.00;;;17.50;99.90;;;;;;5024137;28;20055;-80
2023/09/30 01:11:51;;;;;;;0.00;0.00;;;17.60;99.90;;;;;;5022486;28;20733;-81
2023/09/30 01:14:28;;;;;;;0.00;0.00;;;17.50;99.90;;;;;;5017337;28;20026;-81
2023/09/30 01:16:54;;;;;;;0.00;0.00;;;17.40;99.90;;;;;;5018036;28;20140;-82
2023/09/30 01:19:19;;;;;;;0.20;0.20;;;17.40;99.90;;;;;;5020203;28;20037;-81
2023/09/30 01:21:48;;;;;;;0.07;0.07;;;17.40;99.90;;;;;;5022038;28;20081;-82
2023/09/30 01:24:14;;;;;;;0.00;0.00;;;17.30;99.90;;;;;;5021576;28;20832;-82
2023/09/30 01:26:42;;;;;;;0.00;0.00;;;17.20;99.90;;;;;;5022521;28;20121;-80
2023/09/30 01:29:11;;;;;;;0.00;0.00;;;17.20;99.90;;;;;;5023262;28;20045;-80
2023/09/30 01:31:38;;;;;;;0.45;0.45;;;17.20;99.90;;;;;;5021804;28;20179;-79
2023/09/30 01:34:04;;;;;;;0.00;0.00;;;17.10;99.90;;;;;;5022174;28;20032;-80
2023/09/30 01:36:29;;;;;;;0.00;0.00;;;17.00;99.90;;;;;;5023529;28;20025;-80
2023/09/30 01:38:55;;;;;;;0.00;0.00;;;17.00;99.90;;;;;;5023259;28;20579;-80
2023/09/30 01:41:21;;;;;;;0.00;0.00;;;17.00;99.90;;;;;;5023940;28;20033;-81
2023/09/30 01:43:47;;;;;;;0.00;0.00;;;17.10;99.90;;;;;;5023239;28;20550;-77
2023/09/30 01:46:12;;;;;;;0.00;0.00;;;17.10;99.90;;;;;;5023414;28;20037;-78
2023/09/30 01:48:38;;;;;;;0.00;0.00;;;17.10;99.90;;;;;;5021362;28;20525;-79
2023/09/30 01:51:04;;;;;;;0.10;0.10;;;17.10;99.90;;;;;;5022268;28;20029;-80
2023/09/30 01:53:30;;;;;;;0.00;0.00;;;17.10;99.90;;;;;;5018632;28;20030;-79
2023/09/30 01:55:55;;;;;;;0.00;0.00;;;17.10;99.90;;;;;;5017925;28;20029;-79
2023/09/30 01:58:21;;;;;;;0.00;0.00;;;17.10;99.90;;;;;;5018092;28;20042;-79
2023/09/30 02:00:47;;;;;;;0.63;0.57;;;17.10;99.90;;;;;;5017905;28;20029;-80
2023/09/30 02:03:12;;;;;;;0.00;0.00;;;17.10;99.90;;;;;;5024156;28;20029;-80
2023/09/30 02:05:39;;;;;;;0.00;0.00;;;17.00;99.90;;;;;;5022425;28;20072;-80
2023/09/30 02:08:05;;;;;;;0.00;0.00;;;17.00;99.90;;;;;;5020585;28;20437;-80
2023/09/30 02:10:33;;;;;;;0.00;0.00;;;17.00;99.90;;;;;;5017590;28;20061;-79
2023/09/30 02:13:01;;;;;;;0.00;0.00;;;16.90;99.90;;;;;;5021260;28;20035;-79
2023/09/30 02:15:27;;;;;;;0.13;0.13;;;16.80;99.90;;;;;;5022500;28;20025;-80
2023/09/30 02:17:53;;;;;;;0.60;0.55;;;16.80;99.90;;;;;;5022168;28;20440;-78
2023/09/30 02:20:21;;;;;;;0.00;0.00;;;16.80;99.90;;;;;;5018448;28;20045;-79
2023/09/30 02:22:48;;;;;;;1.15;1.15;;;16.80;99.90;;;;;;5021269;28;20764;-79
2023/09/30 02:25:14;;;;;;;0.00;0.00;;;16.90;99.90;;;;;;5024913;28;20045;-79
2023/09/30 02:27:41;;;;;;;0.47;0.47;;;16.90;99.90;;;;;;5027653;28;20076;-80
2023/09/30 02:30:08;;;;;;;;;;;16.90;99.90;;;;;;5027153;28;20822;-78
2023/09/30 02:32:33;;;;;;;0.30;0.30;;;16.80;99.90;;;;;;5026382;28;19915;-78
2023/09/30 02:34:59;;;;;;;0.10;0.10;;;16.80;99.90;;;;;;5025701;28;20038;-79
2023/09/30 02:37:25;;;;;;;2.50;1.03;;;16.80;99.90;;;;;;5019429;28;20034;-80
2023/09/30 02:39:51;;;;;;;0.00;0.00;;;16.80;99.90;;;;;;5026341;28;20572;-79
2023/09/30 02:42:17;;;;;;;0.00;0.00;;;16.70;99.90;;;;;;5023378;28;20272;-79
2023/09/30 02:44:42;;;;;;;0.00;0.00;;;16.70;99.90;;;;;;5026726;28;20079;-79
2023/09/30 02:47:08;;;;;;;0.00;0.00;;;16.60;99.90;;;;;;5017972;28;20117;-78
2023/09/30 02:49:35;;;;;;;0.00;0.00;;;16.70;99.90;;;;;;5021893;28;20903;-78
2023/09/30 02:52:01;;;;;;;;;;;16.70;99.90;;;;;;5026297;28;20025;-79
2023/09/30 02:54:27;;;;;;;0.10;0.10;;;16.60;99.90;;;;;;5026805;28;19963;-80
2023/09/30 02:56:54;;;;;;;0.03;0.03;;;16.60;99.90;;;;;;5026961;28;20103;-81
2023/09/30 02:59:22;;;;;;;0.00;0.00;;;16.60;99.90;;;;;;5015899;28;20048;-79
2023/09/30 03:01:47;;;;;;;0.00;0.00;;;16.60;99.90;;;;;;5025907;28;20139;-79
2023/09/30 03:04:13;;;;;;;0.20;0.20;;;16.60;99.90;;;;;;5016829;28;20622;-79
2023/09/30 03:06:39;;;;;;;0.00;0.00;;;16.70;99.90;;;;;;5022070;28;20567;-78
2023/09/30 03:09:05;;;;;;;0.00;0.00;;;16.60;99.90;;;;;;5025370;28;20041;-79
2023/09/30 03:11:31;;;;;;;0.33;0.33;;;16.60;99.90;;;;;;5024457;28;20033;-78
2023/09/30 03:13:58;;;;;;;0.10;0.10;;;16.60;99.90;;;;;;5025412;28;20044;-78
2023/09/30 03:16:24;;;;;;;0.00;0.00;;;16.60;99.90;;;;;;5023826;28;20036;-79
2023/09/30 03:18:50;;;;;;;0.52;0.52;;;16.60;99.90;;;;;;5026059;28;20036;-79
2023/09/30 03:21:16;;;;;;;0.00;0.00;;;16.50;99.90;;;;;;5025260;28;20037;-78
2023/09/30 03:23:42;;;;;;;0.23;0.23;;;16.60;99.90;;;;;;5025599;28;20033;-78
2023/09/30 03:26:09;;;;;;;0.00;0.00;;;16.60;99.90;;;;;;5021847;28;20564;-78
2023/09/30 03:28:38;;;;;;;;;;;16.60;99.90;;;;;;5023507;28;20039;-79
2023/09/30 03:31:04;;;;;;;0.00;0.00;;;16.50;99.90;;;;;;5023526;28;19919;-79
2023/09/30 03:33:34;;;;;;;;;;;16.40;99.90;;;;;;5023380;28;20022;-78
2023/09/30 03:35:59;;;;;;;0.00;0.00;;;16.40;99.90;;;;;;5024355;28;19956;-78
2023/09/30 03:38:29;;;;;;;0.00;0.00;;;16.40;99.90;;;;;;5025610;28;20576;-79
2023/09/30 03:40:55;;;;;;;0.00;0.00;;;16.40;99.90;;;;;;5020356;28;20022;-78
2023/09/30 03:43:24;;;;;;;0.00;0.00;;;16.40;99.90;;;;;;5025542;28;20029;-79
2023/09/30 03:45:50;;;;;;;0.00;0.00;;;16.40;99.90;;;;;;5024087;28;20311;-78
2023/09/30 03:48:18;;;;;;;1.83;1.67;;;16.40;99.90;;;;;;5024905;28;20500;-79
2023/09/30 03:50:44;;;;;;;0.00;0.00;;;16.50;99.90;;;;;;5024430;28;20025;-78
2023/09/30 03:53:09;;;;;;;0.03;0.03;;;16.50;99.90;;;;;;5025064;28;20076;-77
2023/09/30 03:55:36;;;;;;;0.00;0.00;;;16.50;99.90;;;;;;5025409;28;20033;-79
2023/09/30 03:58:03;;;;;;;0.00;0.00;;;16.50;99.90;;;;;;5025878;28;20532;-78
2023/09/30 04:00:29;;;;;;;;;;;16.50;99.90;;;;;;5023409;28;20053;-79
2023/09/30 04:02:58;;;;;;;0.00;0.00;;;16.40;99.90;;;;;;5025187;28;20439;-79
2023/09/30 04:05:36;;;;;;;0.00;0.00;;;16.40;99.90;;;;;;5025603;28;20059;-79
2023/09/30 04:08:02;;;;;;;0.10;0.10;;;16.30;99.90;;;;;;5024165;28;20068;-79
2023/09/30 04:10:29;;;;;;;0.10;0.10;;;16.30;99.90;;;;;;5024728;28;20120;-79
2023/09/30 04:12:55;;;;;;;0.00;0.00;;;16.30;99.90;;;;;;5024941;28;20112;-79
2023/09/30 04:15:21;;;;;;;0.00;0.00;;;16.30;99.90;;;;;;5024629;28;20028;-79
2023/09/30 04:17:48;;;;;;;14.07;2.03;;;16.20;99.90;;;;;;5027658;28;20037;-79
2023/09/30 04:20:22;;;;;;;0.00;0.00;;;16.20;99.90;;;;;;5024347;28;20116;-79
2023/09/30 04:22:49;;;;;;;0.00;0.00;;;16.20;99.90;;;;;;5024889;28;20052;-79
2023/09/30 04:25:18;;;;;;;0.00;0.00;;;16.10;99.90;;;;;;5024677;28;20045;-79
2023/09/30 04:27:44;;;;;;;0.00;0.00;;;16.10;99.90;;;;;;5024368;28;20037;-79
2023/09/30 04:30:11;;;;;;;0.00;0.00;;;16.10;99.90;;;;;;5024270;28;20030;-79
2023/09/30 04:32:38;;;;;;;0.00;0.00;;;16.00;99.90;;;;;;5023715;28;20033;-79
2023/09/30 04:35:04;;;;;;;0.00;0.00;;;16.00;99.90;;;;;;5025218;28;20127;-79
2023/09/30 04:37:30;;;;;;;0.00;0.00;;;16.00;99.90;;;;;;5024416;28;20080;-79
2023/09/30 04:39:58;;;;;;;0.00;0.00;;;15.90;99.90;;;;;;5030882;28;20033;-80
2023/09/30 04:42:25;;;;;;;0.00;0.00;;;15.90;99.90;;;;;;5024087;28;20045;-79
2023/09/30 04:44:52;;;;;;;0.00;0.00;;;15.90;99.90;;;;;;5024389;28;20047;-79
2023/09/30 04:47:18;;;;;;;0.30;0.30;;;15.90;99.90;;;;;;5023824;28;20055;-80
2023/09/30 04:49:45;;;;;;;0.10;0.10;;;15.80;99.90;;;;;;5023781;28;20160;-80
2023/09/30 04:52:11;;;;;;;0.00;0.00;;;15.70;99.90;;;;;;5022325;28;20030;-80
2023/09/30 04:54:37;;;;;;;0.00;0.00;;;15.70;99.90;;;;;;5023943;28;20120;-80
2023/09/30 04:57:02;;;;;;;0.00;0.00;;;15.70;99.90;;;;;;5021366;28;20116;-80
2023/09/30 04:59:29;;;;;;;0.00;0.00;;;15.70;99.90;;;;;;5024540;28;20029;-79
2023/09/30 05:01:56;;;;;;;;;;;15.70;99.90;;;;;;5017133;28;20025;-80
2023/09/30 05:04:23;;;;;;;0.00;0.00;;;15.70;99.90;;;;;;5022147;28;19913;-78
2023/09/30 05:06:50;;;;;;;0.00;0.00;;;15.70;99.90;;;;;;5023897;28;20029;-78
2023/09/30 05:09:15;;;;;;;0.00;0.00;;;15.70;99.90;;;;;;5022386;28;20360;-78
2023/09/30 05:11:41;;;;;;;0.00;0.00;;;15.70;99.90;;;;;;5022435;28;20094;-79
2023/09/30 05:14:07;;;;;;;0.00;0.00;;;15.70;99.90;;;;;;5019048;28;20025;-79
2023/09/30 05:16:33;;;;;;;0.00;0.00;;;15.60;99.90;;;;;;5017643;28;20021;-79
2023/09/30 05:18:58;;;;;;;0.00;0.00;;;15.60;99.90;;;;;;5023610;28;20033;-79
2023/09/30 05:21:24;;;;;;;0.00;0.00;;;15.60;99.90;;;;;;5023553;28;20586;-79
2023/09/30 05:23:50;;;;;;;0.00;0.00;;;15.60;99.90;;;;;;5023225;28;20077;-79
2023/09/30 05:26:16;;;;;;;0.10;0.10;;;15.60;99.90;;;;;;5022517;28;20060;-80
2023/09/30 05:28:42;;;;;;;0.00;0.00;;;15.60;99.90;;;;;;5021972;28;20033;-79
2023/09/30 05:31:08;;;;;;;0.15;0.15;;;15.60;99.90;;;;;;5021625;28;20049;-79
2023/09/30 05:33:35;;;;;;;0.00;0.00;;;15.50;99.90;;;;;;5020833;28;20033;-79
2023/09/30 05:36:02;;;;;;;0.00;0.00;;;15.50;99.90;;;;;;5024175;28;20105;-80
2023/09/30 05:38:29;;;;;;;;;;;15.50;99.90;;;;;;5023158;28;20522;-79
2023/09/30 05:40:55;;;;;;;;;;;15.50;99.90;;;;;;5018947;28;19952;-80
2023/09/30 05:43:21;;;;;;;0.00;0.00;;;15.50;99.90;;;;;;5022410;28;19998;-80
2023/09/30 05:45:49;;;;;;;0.00;0.00;;;15.50;99.90;;;;;;5020347;28;20038;-79
2023/09/30 05:48:15;;;;;;;0.03;0.03;;;15.40;99.90;;;;;;5018077;28;20612;-79
2023/09/30 05:50:42;;;;;;;;;;;15.50;99.90;;;;;;5023350;28;20025;-80
2023/09/30 05:53:10;;;;;;;0.00;0.00;;;15.50;99.90;;;;;;5022997;28;19916;-78
2023/09/30 05:55:36;;;;;;;0.00;0.00;;;15.40;99.90;;;;;;5022466;28;20013;-80
2023/09/30 05:58:02;;;;;;;0.68;0.68;;;15.40;99.90;;;;;;5020339;28;20033;-79
2023/09/30 06:00:30;;;;;;;0.00;0.00;;;15.40;99.90;;;;;;5022056;28;20026;-78
2023/09/30 06:02:56;;;;;;;0.00;0.00;;;15.40;99.90;;;;;;5012828;28;20087;-80
2023/09/30 06:05:22;;;;;;;0.00;0.00;;;15.70;99.90;;;;;;5020179;28;20049;-78
2023/09/30 06:07:48;;;;;;;0.00;0.00;;;15.80;99.90;;;;;;5022774;28;20614;-79
2023/09/30 06:10:18;;;;;;;0.00;0.00;;;16.00;99.90;;;;;;5022068;28;20548;-78
2023/09/30 06:12:47;;;;;;;0.00;0.00;;;16.30;99.90;;;;;;5021999;28;20587;-82
2023/09/30 06:15:15;;;;;;;0.00;0.00;;;16.60;99.90;;;;;;5020821;28;20043;-79
2023/09/30 06:17:41;;;;;;;0.00;0.00;;;16.80;99.90;;;;;;5022525;28;20040;-79
2023/09/30 06:20:08;;;;;;;0.00;0.00;;;17.20;99.90;;;;;;5020725;28;20076;-80
2023/09/30 06:22:35;;;;;;;6.30;1.55;;;17.40;99.90;;;;;;5021102;28;20535;-79
2023/09/30 06:25:02;;;;;;;0.00;0.00;;;17.60;99.90;;;;;;5022129;28;20045;-81
2023/09/30 06:27:27;;;;;;;0.00;0.00;;;17.60;99.90;;;;;;5020622;28;20029;-81
2023/09/30 06:29:54;;;;;;;0.00;0.00;;;17.60;99.90;;;;;;5022619;28;20052;-79
2023/09/30 06:32:20;;;;;;;0.47;0.47;;;17.90;99.90;;;;;;5022161;28;20480;-79
2023/09/30 06:34:46;;;;;;;0.00;0.00;;;18.20;99.90;;;;;;5017942;28;20087;-80
2023/09/30 06:37:11;;;;;;;0.00;0.00;;;18.50;99.90;;;;;;5019253;28;20071;-80
2023/09/30 06:39:37;;;;;;;0.00;0.00;;;18.80;99.90;;;;;;5013132;28;20779;-80
2023/09/30 06:42:03;;;;;;;1.20;1.10;;;19.30;99.90;;;;;;5022312;28;20079;-80
2023/09/30 06:44:30;;;;;;;0.00;0.00;;;20.00;99.90;;;;;;5020250;28;20037;-76
2023/09/30 06:46:57;;;;;;;0.00;0.00;;;20.20;98.60;;;;;;5021913;28;20026;-76
2023/09/30 06:49:22;;;;;;;0.00;0.00;;;20.00;98.20;;;;;;5019465;28;20441;-74
2023/09/30 06:51:48;;;;;;;0.00;0.00;;;20.10;98.10;;;;;;5019784;28;20054;-76
2023/09/30 06:54:14;;;;;;;0.00;0.00;;;20.20;98.00;;;;;;5021456;28;20377;-78
2023/09/30 06:56:41;;;;;;;0.00;0.00;;;19.90;99.70;;;;;;5020194;28;20034;-78
2023/09/30 06:59:06;;;;;;;0.00;0.00;;;20.50;98.40;;;;;;5021846;28;20083;-79
2023/09/30 07:01:32;;;;;;;0.00;0.00;;;21.40;96.30;;;;;;5018998;28;20658;-78
2023/09/30 07:03:58;;;;;;;0.00;0.00;;;21.90;95.00;;;;;;5022147;28;20144;-80
2023/09/30 07:06:25;;;;;;;0.00;0.00;;;21.90;94.60;;;;;;5020121;28;20037;-80
2023/09/30 07:08:51;;;;;;;0.00;0.00;;;22.20;93.90;;;;;;5020985;28;20582;-79
2023/09/30 07:11:17;;;;;;;0.00;0.00;;;22.40;93.20;;;;;;5025016;28;20025;-80
2023/09/30 07:13:42;;;;;;;0.00;0.00;;;22.70;92.90;;;;;;5021683;28;20091;-80
2023/09/30 07:16:08;;;;;;;0.00;0.00;;;22.70;92.20;;;;;;5025385;28;20030;-80
2023/09/30 07:18:34;;;;;;;0.00;0.00;;;22.40;92.60;;;;;;5024810;28;20037;-79
2023/09/30 07:20:59;;;;;;;0.23;0.23;;;22.50;92.40;;;;;;5024790;28;20025;-78
2023/09/30 07:23:29;;;;;;;0.00;0.00;;;23.10;91.40;;;;;;5025257;28;20026;-80
2023/09/30 07:25:55;;;;;;;0.00;0.00;;;22.80;91.50;;;;;;5025860;28;20375;-80
2023/09/30 07:28:20;;;;;;;0.00;0.00;;;22.80;91.50;;;;;;5024153;28;20518;-78
2023/09/30 07:30:46;;;;;;;1.70;1.60;;;22.70;91.50;;;;;;5020771;28;20088;-80
2023/09/30 07:33:12;;;;;;;0.00;0.00;;;22.60;91.60;;;;;;5025986;28;20029;-77
2023/09/30 07:35:38;;;;;;;0.00;0.00;;;22.90;91.30;;;;;;5024504;28;20033;-78
2023/09/30 07:38:04;;;;;;;0.00;0.00;;;23.20;90.40;;;;;;5017701;28;20113;-79
2023/09/30 07:40:30;;;;;;;0.00;0.00;;;24.20;90.00;;;;;;5021373;28;20029;-80
2023/09/30 07:42:57;;;;;;;0.00;0.00;;;24.00;88.60;;;;;;5018700;28;20103;-81
2023/09/30 07:45:23;;;;;;;0.00;0.00;;;23.30;90.20;;;;;;5022226;28;20029;-78
2023/09/30 07:47:49;;;;;;;1.40;0.83;;;23.40;87.10;;;;;;5021035;28;20033;-78
2023/09/30 07:50:15;;;;;;;0.17;0.17;;;23.80;87.50;;;;;;5010987;28;20334;-80
2023/09/30 07:52:42;;;;;;;0.00;0.00;;;23.40;87.20;;;;;;5023180;28;20136;-78
2023/09/30 07:55:08;;;;;;;0.00;0.00;;;23.50;87.40;;;;;;5023846;28;20033;-79
2023/09/30 07:57:34;;;;;;;0.00;0.00;;;23.80;86.40;;;;;;5020800;28;20518;-79
2023/09/30 08:00:00;;;;;;;0.00;0.00;;;23.80;85.70;;;;;;5020459;28;20037;-78
2023/09/30 08:02:33;;;;;;;0.00;0.00;;;24.70;82.80;;;;;;5020576;28;20033;-79
2023/09/30 08:04:59;;;;;;;0.00;0.00;;;25.20;82.20;;;;;;5022213;28;20111;-80
2023/09/30 08:07:25;;;;;;;0.00;0.00;;;25.70;81.10;;;;;;5022647;28;20029;-81
2023/09/30 08:09:51;;;;;;;0.00;0.00;;;25.60;80.60;;;;;;5024260;28;20040;-82
2023/09/30 08:12:17;;;;;;;0.00;0.00;;;25.30;81.20;;;;;;5024401;28;20456;-78
2023/09/30 08:14:44;;;;;;;0.00;0.00;;;25.50;80.20;;;;;;5023555;28;20282;-78
2023/09/30 08:17:10;;;;;;;0.00;0.00;;;25.70;78.90;;;;;;5023216;28;20037;-77
2023/09/30 08:19:37;;;;;;;0.00;0.00;;;25.90;79.90;;;;;;5024201;28;20032;-77
2023/09/30 08:22:06;;;;;;;;;;;26.20;79.30;;;;;;5024280;28;20029;-78
2023/09/30 08:24:32;;;;;;;0.00;0.00;;;25.70;78.80;;;;;;5024522;28;19924;-78
2023/09/30 08:26:57;;;;;;;0.00;0.00;;;26.00;79.60;;;;;;5023753;28;20663;-77
2023/09/30 08:29:23;;;;;;;0.00;0.00;;;26.60;77.60;;;;;;5023400;28;21036;-78
2023/09/30 08:31:50;;;;;;;0.00;0.00;;;26.70;77.50;;;;;;5022181;28;20101;-77
2023/09/30 08:34:17;;;;;;;0.00;0.00;;;27.60;74.90;;;;;;5023272;28;20021;-78
2023/09/30 08:36:43;;;;;;;0.00;0.00;;;26.90;74.80;;;;;;5023469;28;20587;-78
2023/09/30 08:39:10;;;;;;;0.00;0.00;;;26.80;72.10;;;;;;5023172;28;20041;-78
2023/09/30 08:41:36;;;;;;;0.00;0.00;;;27.40;73.80;;;;;;5023115;28;20033;-78
2023/09/30 08:44:03;;;;;;;0.00;0.00;;;26.70;72.20;;;;;;5023947;28;20468;-77
2023/09/30 08:46:36;;;;;;;0.00;0.00;;;27.90;72.00;;;;;;5021729;28;20041;-78
2023/09/30 08:49:03;;;;;;;0.00;0.00;;;27.90;71.70;;;;;;5022793;28;20041;-77
2023/09/30 08:51:30;;;;;;;0.00;0.00;;;28.10;70.20;;;;;;5024118;28;20025;-79
2023/09/30 08:53:57;;;;;;;0.00;0.00;;;27.60;71.30;;;;;;5024124;28;20099;-78
2023/09/30 08:56:32;;;;;;;0.00;0.00;;;27.60;71.20;;;;;;5023542;28;20451;-77
2023/09/30 08:59:00;;;;;;;0.10;0.10;;;27.10;70.30;;;;;;5023532;28;20117;-78
2023/09/30 09:01:28;;;;;;;0.00;0.00;;;27.00;70.60;;;;;;5023785;28;20029;-79
2023/09/30 09:03:54;;;;;;;0.00;0.00;;;27.50;71.20;;;;;;5022949;28;20083;-78
2023/09/30 09:06:24;;;;;;;0.00;0.00;;;28.30;71.70;;;;;;5022653;28;20037;-80
2023/09/30 09:08:51;;;;;;;0.00;0.00;;;29.00;68.70;;;;;;5023725;28;20148;-80
2023/09/30 09:11:17;;;;;;;0.00;0.00;;;28.60;68.90;;;;;;5021468;28;20037;-81
2023/09/30 09:13:55;;;;;;;0.00;0.00;;;29.00;71.20;;;;;;5021917;28;20033;-81
2023/09/30 09:16:22;;;;;;;0.00;0.00;;;29.00;68.00;;;;;;5023546;28;20043;-81
2023/09/30 09:18:48;;;;;;;0.00;0.00;;;29.10;68.00;;;;;;5021139;28;20029;-82
2023/09/30 09:21:20;;;;;;;0.00;0.00;;;29.30;66.30;;;;;;5023348;28;20032;-82
2023/09/30 09:23:50;;;;;;;0.00;0.00;;;28.90;67.20;;;;;;5022934;28;20697;-82
2023/09/30 09:26:30;;;;;;;1.65;1.55;;;28.70;69.80;;;;;;5022923;28;20030;-80
2023/09/30 09:29:04;;;;;;;0.00;0.00;;;29.10;68.10;;;;;;5019174;28;20048;-80
2023/09/30 09:31:34;;;;;;;0.00;0.00;;;29.00;67.90;;;;;;5023050;28;20035;-79
2023/09/30 09:34:01;;;;;;;0.00;0.00;;;29.10;67.80;;;;;;5020425;28;20029;-80
2023/09/30 09:36:40;;;;;;;0.00;0.00;;;29.50;65.60;;;;;;5021509;28;20041;-80
2023/09/30 09:39:06;;;;;;;0.00;0.00;;;29.10;66.20;;;;;;5021518;28;20639;-81
2023/09/30 09:41:32;;;;;;;0.00;0.00;;;29.30;66.20;;;;;;5020937;28;20029;-80
2023/09/30 09:43:59;;;;;;;0.00;0.00;;;28.60;65.30;;;;;;5021585;28;20075;-80
2023/09/30 09:46:29;;;;;;;0.00;0.00;;;28.10;66.40;;;;;;5022036;28;20460;-80
2023/09/30 09:48:57;;;;;;;0.00;0.00;;;27.30;67.60;;;;;;5022831;28;20038;-83
2023/09/30 09:51:24;;;;;;;0.00;0.00;;;26.90;68.30;;;;;;5020714;28;20388;-82
2023/09/30 09:53:51;;;;;;;0.00;0.00;;;27.10;70.00;;;;;;5023972;28;20106;-80
2023/09/30 09:56:18;;;;;;;0.00;0.00;;;26.60;69.20;;;;;;5052482;28;20572;-82
2023/09/30 09:58:47;;;;;;;0.00;0.00;;;26.30;67.70;;;;;;5010197;28;20033;-83
2023/09/30 10:01:13;;;;;;;0.00;0.00;;;26.50;69.10;;;;;;5022725;28;20739;-82
2023/09/30 10:03:39;;;;;;;0.00;0.00;;;26.30;69.00;;;;;;5032601;28;20037;-83
2023/09/30 10:06:05;;;;;;;0.00;0.00;;;26.20;68.20;;;;;;5021210;28;20080;-82
2023/09/30 10:08:33;;;;;;;;;;;26.00;68.50;;;;;;5022694;28;20044;-81
2023/09/30 10:10:59;;;;;;;0.00;0.00;;;25.90;68.90;;;;;;5022799;28;19931;-81
2023/09/30 10:13:55;;;;;;;0.00;0.00;;;26.20;71.50;;;;;;5022808;28;20021;-81
2023/09/30 10:16:51;;;;;;;0.00;0.00;;;25.90;68.50;;;;;;5022026;28;20040;-80
2023/09/30 10:19:19;;;;;;;0.00;0.00;;;25.70;69.20;;;;;;5004788;28;20053;-83
2023/09/30 10:22:24;;;;;;;0.00;0.00;;;25.90;70.20;;;;;;5022629;28;20029;-83
2023/09/30 10:24:51;;;;;;;;;;;25.80;69.20;;;;;;4999746;28;20054;-81
2023/09/30 10:27:28;;;;;;;3.20;0.35;;;26.40;70.20;;;;;;5023152;28;20323;-81
2023/09/30 10:30:05;;;;;;;0.00;0.00;;;26.00;69.40;;;;;;5025313;28;20040;-87
2023/09/30 10:35:19;;;;;;;2.65;1.35;;;26.00;70.20;;;;;;5016816;28;20034;-86
2023/09/30 10:37:45;;;;;;;0.00;0.00;;;25.90;71.10;;;;;;5021785;28;20030;-81
2023/09/30 10:40:27;;;;;;;0.88;0.88;;;25.60;70.60;;;;;;5021575;28;20532;-83
2023/09/30 10:42:55;;;;;;;0.00;0.00;;;25.70;71.60;;;;;;5014036;28;20037;-81
2023/09/30 10:45:38;;;;;;;0.00;0.00;;;25.70;72.30;;;;;;5024175;28;20108;-81
2023/09/30 10:48:30;;;;;;;0.00;0.00;;;26.20;73.80;;;;;;5026585;28;20043;-82
2023/09/30 10:51:04;;;;;;;0.00;0.00;;;26.30;71.20;;;;;;5023912;28;20678;-83
2023/09/30 10:53:30;;;;;;;0.00;0.00;;;26.20;73.10;;;;;;5024678;28;20064;-82
2023/09/30 10:55:57;;;;;;;0.00;0.00;;;26.10;72.30;;;;;;5023080;28;20037;-81
2023/09/30 10:58:39;;;;;;;0.00;0.00;;;26.30;73.60;;;;;;5024739;28;20025;-80
2023/09/30 11:01:05;;;;;;;0.00;0.00;;;26.60;76.50;;;;;;5045959;28;20025;-82
2023/09/30 11:03:30;;;;;;;0.00;0.00;;;26.30;72.60;;;;;;5024856;28;20025;-82
2023/09/30 11:05:56;;;;;;;0.00;0.00;;;26.30;75.00;;;;;;5022080;28;20086;-83
2023/09/30 11:08:23;;;;;;;0.00;0.00;;;26.30;72.00;;;;;;5025809;28;20402;-81
2023/09/30 11:10:52;;;;;;;0.00;0.00;;;25.90;73.00;;;;;;5025209;28;20032;-81
2023/09/30 11:13:19;;;;;;;0.00;0.00;;;26.20;74.50;;;;;;5025777;28;20025;-81
2023/09/30 11:15:45;;;;;;;0.00;0.00;;;25.80;73.10;;;;;;5023337;28;20029;-81
2023/09/30 11:18:15;;;;;;;0.00;0.00;;;26.00;73.00;;;;;;5026338;28;20029;-81
2023/09/30 11:20:43;;;;;;;0.00;0.00;;;25.90;74.80;;;;;;5025586;28;20033;-80
2023/09/30 11:23:09;;;;;;;0.00;0.00;;;26.30;76.00;;;;;;5025768;28;20033;-79
2023/09/30 11:25:35;;;;;;;0.00;0.00;;;26.70;74.70;;;;;;5024071;28;20045;-79
2023/09/30 11:28:15;;;;;;;0.00;0.00;;;27.00;74.70;;;;;;5025344;28;20033;-79
2023/09/30 11:31:01;;;;;;;0.00;0.00;;;26.40;74.80;;;;;;5025188;28;20128;-80
2023/09/30 11:33:27;;;;;;;0.00;0.00;;;27.00;75.60;;;;;;5023969;28;20072;-79
2023/09/30 11:36:05;;;;;;;0.00;0.00;;;27.20;73.80;;;;;;5024346;28;20025;-79
2023/09/30 11:38:32;;;;;;;0.00;0.00;;;27.10;77.30;;;;;;5024028;28;20041;-79
2023/09/30 11:41:00;;;;;;;0.00;0.00;;;26.60;74.60;;;;;;5018888;28;20839;-81
2023/09/30 11:43:26;;;;;;;0.00;0.00;;;26.50;76.10;;;;;;5024668;28;20072;-79
2023/09/30 11:45:51;;;;;;;0.00;0.00;;;26.00;74.70;;;;;;5024629;28;20059;-79
2023/09/30 11:48:19;;;;;;;0.00;0.00;;;25.50;73.20;;;;;;5023258;28;20029;-79
2023/09/30 11:50:49;;;;;;;0.00;0.00;;;25.40;73.20;;;;;;5013963;28;20034;-84
2023/09/30 11:53:17;;;;;;;0.00;0.00;;;25.10;74.00;;;;;;5025344;28;20032;-81
2023/09/30 11:55:42;;;;;;;0.00;0.00;;;25.20;75.20;;;;;;5025426;28;20104;-79
2023/09/30 11:58:09;;;;;;;0.00;0.00;;;25.20;73.10;;;;;;5021657;28;20520;-80
2023/09/30 12:00:35;;;;;;;0.00;0.00;;;25.30;72.80;;;;;;5023260;28;20026;-82
2023/09/30 12:03:01;;;;;;;0.00;0.00;;;25.20;72.30;;;;;;5022673;28;20029;-80
2023/09/30 12:05:28;;;;;;;0.40;0.40;;;25.30;72.00;;;;;;5023881;28;20283;-81
2023/09/30 12:07:54;;;;;;;0.00;0.00;;;25.30;74.70;;;;;;5023464;28;20108;-81
2023/09/30 12:10:20;;;;;;;0.00;0.00;;;25.20;72.40;;;;;;5024511;28;20783;-82
2023/09/30 12:12:45;;;;;;;0.00;0.00;;;25.00;73.00;;;;;;5025965;28;20025;-88
2023/09/30 12:15:11;;;;;;;0.00;0.00;;;24.80;73.00;;;;;;5026854;28;20276;-86
2023/09/30 12:17:39;;;;;;;0.00;0.00;;;24.80;73.70;;;;;;5025692;28;20029;-88
2023/09/30 12:20:06;;;;;;;0.15;0.08;;;24.90;75.20;;;;;;5020518;28;20072;-88
2023/09/30 12:22:32;;;;;;;0.00;0.00;;;24.90;73.40;;;;;;5018701;28;20030;-89
2023/09/30 12:24:58;;;;;;;0.00;0.00;;;25.10;73.60;;;;;;5019271;28;20037;-88
2023/09/30 12:27:24;;;;;;;0.00;0.00;;;25.20;78.30;;;;;;5029904;28;20037;-89
2023/09/30 12:29:50;;;;;;;0.00;0.00;;;25.30;77.60;;;;;;5030516;28;20034;-88
2023/09/30 12:32:16;;;;;;;0.93;0.77;;;25.40;77.00;;;;;;5025938;28;20038;-89
2023/09/30 12:34:41;;;;;;;0.00;0.00;;;25.30;75.60;;;;;;5025819;28;20028;-89
2023/09/30 12:37:07;;;;;;;0.00;0.00;;;25.30;76.60;;;;;;5024573;28;20280;-88
2023/09/30 12:39:33;;;;;;;0.00;0.00;;;25.40;77.40;;;;;;5024521;28;20083;-87
2023/09/30 12:41:58;;;;;;;0.00;0.00;;;25.30;79.00;;;;;;5028740;28;20279;-87
2023/09/30 12:44:24;;;;;;;0.00;0.00;;;25.20;78.80;;;;;;5016404;28;20033;-90
2023/09/30 12:46:50;;;;;;;0.00;0.00;;;25.20;77.90;;;;;;5025404;28;20041;-87
2023/09/30 12:49:16;;;;;;;0.00;0.00;;;25.20;76.50;;;;;;5025832;28;20042;-89
2023/09/30 12:51:41;;;;;;;0.00;0.00;;;25.20;78.20;;;;;;5023952;28;20022;-90
2023/09/30 12:54:07;;;;;;;0.00;0.00;;;25.30;75.40;;;;;;5025068;28;20029;-88